Time;durP1;ratioP1;P1;durP2;ratioP2;P2;SDS_P1;SDS_P2;PMS_P1;PMS_P2;Temp;Humidity;BMP_temperature;BMP_pressure;BME280_temperature;BME280_humidity;BME280_pressure;Samples;Min_cycle;Max_cycle;Signal;HPM_P1;HPM_P2
2022/03/28 00:02:06;;;;;;;;;;;23.00;28.80;;;;;;4799610;29;20139;-59
2022/03/28 00:04:33;;;;;;;;;;;23.00;28.80;;;;;;4799865;29;19929;-59
2022/03/28 00:07:00;;;;;;;;;;;23.00;28.80;;;;;;4800234;29;19978;-59
2022/03/28 00:09:27;;;;;;;;;;;23.00;28.80;;;;;;4800370;29;20012;-59
2022/03/28 00:11:54;;;;;;;;;;;23.00;28.90;;;;;;4798321;29;19937;-59
2022/03/28 00:14:21;;;;;;;;;;;23.00;28.90;;;;;;4797285;29;20420;-59
2022/03/28 00:16:48;;;;;;;;;;;23.00;28.90;;;;;;4800526;29;19965;-59
2022/03/28 00:19:15;;;;;;;;;;;23.00;28.90;;;;;;4799705;29;19933;-59
2022/03/28 00:21:42;;;;;;;;;;;23.00;28.90;;;;;;4800317;29;20383;-59
2022/03/28 00:24:09;;;;;;;;;;;23.00;28.90;;;;;;4799956;29;20009;-59
2022/03/28 00:26:36;;;;;;;;;;;23.00;28.90;;;;;;4799817;29;20356;-59
2022/03/28 00:29:03;;;;;;;;;;;23.00;28.90;;;;;;4800258;29;20001;-59
2022/03/28 00:31:30;;;;;;;;;;;23.00;28.90;;;;;;4799944;29;19972;-59
2022/03/28 00:33:57;;;;;;;;;;;23.00;28.90;;;;;;4799061;29;19936;-59
2022/03/28 00:36:24;;;;;;;;;;;23.00;28.90;;;;;;4799454;29;19937;-59
2022/03/28 00:38:51;;;;;;;;;;;23.00;28.90;;;;;;4799888;29;20450;-59
2022/03/28 00:41:22;;;;;;;;;;;23.00;28.90;;;;;;4799997;29;19929;-59
2022/03/28 00:43:56;;;;;;;;;;;23.00;28.90;;;;;;4796382;29;19978;-59
2022/03/28 00:46:23;;;;;;;;;;;23.00;28.90;;;;;;4799654;29;20022;-59
2022/03/28 00:48:50;;;;;;;;;;;23.00;28.90;;;;;;4799250;29;19929;-59
2022/03/28 00:51:18;;;;;;;;;;;23.00;28.90;;;;;;4799790;29;19929;-59
2022/03/28 00:53:46;;;;;;;;;;;23.00;28.90;;;;;;4799787;29;19968;-59
2022/03/28 00:56:13;;;;;;;;;;;22.90;28.90;;;;;;4799989;29;20463;-59
2022/03/28 00:58:40;;;;;;;;;;;23.00;28.90;;;;;;4799987;29;20252;-59
2022/03/28 01:01:09;;;;;;;;;;;23.00;28.90;;;;;;4799391;29;20398;-59
2022/03/28 01:03:37;;;;;;;;;;;22.90;28.90;;;;;;4799911;29;20505;-59
2022/03/28 01:06:05;;;;;;;;;;;22.90;28.90;;;;;;4799768;29;19981;-59
2022/03/28 01:08:36;;;;;;;;;;;22.90;28.90;;;;;;4799856;29;19936;-59
2022/03/28 01:11:04;;;;;;;;;;;22.90;28.90;;;;;;4799448;29;19991;-59
2022/03/28 01:13:34;;;;;;;;;;;22.90;28.90;;;;;;4801083;29;20375;-59
2022/03/28 01:16:02;;;;;;;;;;;22.90;28.90;;;;;;4812607;29;19936;-59
2022/03/28 01:18:29;;;;;;;;;;;22.90;28.90;;;;;;4802359;29;20356;-58
2022/03/28 01:20:57;;;;;;;;;;;22.90;28.90;;;;;;4803247;29;20012;-59
2022/03/28 01:23:24;;;;;;;;;;;22.90;28.90;;;;;;4802516;29;19959;-59
2022/03/28 01:25:51;;;;;;;;;;;22.90;28.90;;;;;;4802656;29;20027;-59
2022/03/28 01:28:20;;;;;;;;;;;22.90;28.90;;;;;;4803133;29;20044;-58
2022/03/28 01:30:47;;;;;;;;;;;22.90;28.90;;;;;;4802219;29;19978;-59
2022/03/28 01:33:15;;;;;;;;;;;22.90;28.90;;;;;;4801595;29;19959;-59
2022/03/28 01:35:43;;;;;;;;;;;22.90;29.00;;;;;;4802511;29;20157;-59
2022/03/28 01:38:11;;;;;;;;;;;22.90;29.00;;;;;;4802843;29;19985;-59
2022/03/28 01:40:39;;;;;;;;;;;22.90;29.00;;;;;;4803050;29;20626;-59
2022/03/28 01:43:06;;;;;;;;;;;22.80;28.90;;;;;;4802233;29;19994;-59
2022/03/28 01:45:33;;;;;;;;;;;22.90;29.00;;;;;;4802687;29;19986;-59
2022/03/28 01:48:00;;;;;;;;;;;22.80;28.90;;;;;;4797913;29;19986;-59
2022/03/28 01:50:27;;;;;;;;;;;22.90;29.40;;;;;;4802571;29;20031;-59
2022/03/28 01:52:54;;;;;;;;;;;22.80;28.90;;;;;;4802320;29;20020;-59
2022/03/28 01:55:23;;;;;;;;;;;22.80;29.00;;;;;;4801984;29;19929;-59
2022/03/28 01:57:52;;;;;;;;;;;22.80;29.00;;;;;;4802518;29;20437;-59
2022/03/28 02:00:20;;;;;;;;;;;22.80;29.00;;;;;;4802078;29;20003;-59
2022/03/28 02:02:47;;;;;;;;;;;22.80;29.00;;;;;;4802178;29;19968;-60
2022/03/28 02:05:15;;;;;;;;;;;22.80;29.00;;;;;;4802481;29;19929;-59
2022/03/28 02:07:43;;;;;;;;;;;22.80;29.00;;;;;;4801954;29;20021;-59
2022/03/28 02:10:12;;;;;;;;;;;22.80;29.00;;;;;;4802334;29;20484;-59
2022/03/28 02:12:39;;;;;;;;;;;22.80;29.00;;;;;;4801193;29;20028;-59
2022/03/28 02:15:06;;;;;;;;;;;22.80;29.00;;;;;;4802647;29;19977;-59
2022/03/28 02:17:34;;;;;;;;;;;22.80;29.00;;;;;;4802027;29;19976;-59
2022/03/28 02:20:02;;;;;;;;;;;22.80;29.00;;;;;;4797392;29;20028;-59
2022/03/28 02:22:29;;;;;;;;;;;22.80;29.00;;;;;;4802064;29;19929;-59
2022/03/28 02:24:56;;;;;;;;;;;22.80;29.00;;;;;;4801183;29;19941;-59
2022/03/28 02:27:23;;;;;;;;;;;22.80;29.00;;;;;;4802255;29;20026;-59
2022/03/28 02:29:50;;;;;;;;;;;22.80;29.00;;;;;;4802037;29;20158;-59
2022/03/28 02:32:17;;;;;;;;;;;22.80;29.00;;;;;;4801417;29;20044;-59
2022/03/28 02:34:44;;;;;;;;;;;22.80;29.00;;;;;;4801636;29;20199;-59
2022/03/28 02:37:11;;;;;;;;;;;22.80;29.00;;;;;;4801200;29;20031;-59
2022/03/28 02:39:38;;;;;;;;;;;22.80;29.00;;;;;;4801623;29;19986;-59
2022/03/28 02:42:06;;;;;;;;;;;22.80;29.00;;;;;;4801098;29;19986;-59
2022/03/28 02:44:33;;;;;;;;;;;22.80;29.00;;;;;;4801892;29;19972;-59
2022/03/28 02:47:00;;;;;;;;;;;22.80;29.00;;;;;;4801294;29;19929;-59
2022/03/28 02:49:26;;;;;;;;;;;22.80;29.00;;;;;;4813540;29;19977;-59
2022/03/28 02:51:53;;;;;;;;;;;22.80;29.00;;;;;;4798973;29;20010;-59
2022/03/28 02:54:20;;;;;;;;;;;22.80;29.00;;;;;;4801216;29;20397;-59
2022/03/28 02:56:48;;;;;;;;;;;22.80;29.00;;;;;;4801443;29;20621;-59
2022/03/28 02:59:15;;;;;;;;;;;22.80;29.00;;;;;;4801015;29;20321;-59
2022/03/28 03:01:44;;;;;;;;;;;22.80;29.00;;;;;;4800907;29;20353;-59
2022/03/28 03:04:11;;;;;;;;;;;22.80;29.00;;;;;;4800927;29;20048;-59
2022/03/28 03:06:38;;;;;;;;;;;22.80;29.00;;;;;;4801326;29;19986;-59
2022/03/28 03:09:05;;;;;;;;;;;22.70;29.40;;;;;;4800997;29;20026;-59
2022/03/28 03:11:32;;;;;;;;;;;22.70;29.00;;;;;;4800857;29;20418;-59
2022/03/28 03:13:59;;;;;;;;;;;22.70;29.00;;;;;;4800626;29;20229;-59
2022/03/28 03:16:26;;;;;;;;;;;22.70;29.00;;;;;;4801601;29;20008;-59
2022/03/28 03:18:54;;;;;;;;;;;22.70;29.00;;;;;;4800640;29;19982;-59
2022/03/28 03:21:22;;;;;;;;;;;22.70;29.00;;;;;;4797203;29;20020;-59
2022/03/28 03:23:49;;;;;;;;;;;22.70;29.10;;;;;;4800654;29;19995;-59
2022/03/28 03:26:16;;;;;;;;;;;22.70;29.00;;;;;;4801031;29;20305;-59
2022/03/28 03:28:43;;;;;;;;;;;22.70;29.10;;;;;;4801130;29;20020;-58
2022/03/28 03:31:10;;;;;;;;;;;22.70;29.10;;;;;;4801025;29;19978;-59
2022/03/28 03:33:37;;;;;;;;;;;22.70;29.10;;;;;;4800867;29;20441;-59
2022/03/28 03:36:06;;;;;;;;;;;22.70;29.10;;;;;;4800110;29;19986;-59
2022/03/28 03:38:33;;;;;;;;;;;22.70;29.10;;;;;;4799328;29;20025;-59
2022/03/28 03:41:00;;;;;;;;;;;22.70;29.10;;;;;;4798970;29;20012;-59
2022/03/28 03:43:27;;;;;;;;;;;22.70;29.10;;;;;;4796747;29;19972;-59
2022/03/28 03:45:55;;;;;;;;;;;22.70;29.10;;;;;;4800328;29;19929;-59
2022/03/28 03:48:22;;;;;;;;;;;22.70;29.10;;;;;;4800362;29;19998;-59
2022/03/28 03:50:49;;;;;;;;;;;22.70;29.10;;;;;;4799125;29;19929;-59
2022/03/28 03:53:16;;;;;;;;;;;22.60;29.00;;;;;;4794077;29;20020;-59
2022/03/28 03:55:43;;;;;;;;;;;22.60;29.00;;;;;;4798947;29;20274;-59
2022/03/28 03:58:11;;;;;;;;;;;22.60;29.00;;;;;;4798678;29;20339;-59
2022/03/28 04:00:39;;;;;;;;;;;22.60;29.00;;;;;;4800153;29;20006;-59
2022/03/28 04:03:06;;;;;;;;;;;22.60;29.00;;;;;;4800055;29;20058;-59
2022/03/28 04:05:37;;;;;;;;;;;22.60;29.00;;;;;;4799768;29;19936;-59
2022/03/28 04:08:05;;;;;;;;;;;22.60;29.00;;;;;;4799764;29;19929;-59
2022/03/28 04:10:34;;;;;;;;;;;22.60;29.10;;;;;;4800037;29;19988;-59
2022/03/28 04:13:02;;;;;;;;;;;22.60;29.10;;;;;;4799973;29;20340;-60
2022/03/28 04:15:29;;;;;;;;;;;22.60;29.10;;;;;;4799957;29;19930;-59
2022/03/28 04:17:56;;;;;;;;;;;22.60;29.10;;;;;;4800118;29;19929;-59
2022/03/28 04:20:25;;;;;;;;;;;22.60;29.10;;;;;;4796954;29;19929;-59
2022/03/28 04:22:52;;;;;;;;;;;22.60;29.10;;;;;;4797904;29;20577;-59
2022/03/28 04:25:19;;;;;;;;;;;22.60;29.50;;;;;;4793854;29;19980;-59
2022/03/28 04:27:46;;;;;;;;;;;22.60;29.10;;;;;;4796285;29;19932;-59
2022/03/28 04:30:13;;;;;;;;;;;22.60;29.10;;;;;;4812510;29;19935;-59
2022/03/28 04:32:40;;;;;;;;;;;22.60;29.10;;;;;;4794681;29;20164;-59
2022/03/28 04:35:08;;;;;;;;;;;22.60;29.10;;;;;;4793888;29;20224;-60
2022/03/28 04:37:36;;;;;;;;;;;22.60;29.10;;;;;;4782582;29;20020;-59
2022/03/28 04:40:05;;;;;;;;;;;22.60;29.10;;;;;;4786667;29;19980;-59
2022/03/28 04:42:32;;;;;;;;;;;22.60;29.00;;;;;;4799988;29;20001;-59
2022/03/28 04:44:59;;;;;;;;;;;22.60;29.00;;;;;;4799896;29;19969;-59
2022/03/28 04:47:27;;;;;;;;;;;22.60;29.00;;;;;;4793563;29;19995;-59
2022/03/28 04:49:53;;;;;;;;;;;22.60;29.00;;;;;;4799781;29;20183;-59
2022/03/28 04:52:21;;;;;;;;;;;22.60;29.00;;;;;;4801899;29;19929;-59
2022/03/28 04:54:47;;;;;;;;;;;22.60;29.00;;;;;;4802166;29;20031;-59
2022/03/28 04:57:15;;;;;;;;;;;22.60;29.00;;;;;;4791089;29;20403;-59
2022/03/28 04:59:42;;;;;;;;;;;22.60;29.00;;;;;;4784605;29;20379;-59
2022/03/28 05:02:08;;;;;;;;;;;22.60;28.90;;;;;;4783939;30;19945;-62
2022/03/28 05:04:36;;;;;;;;;;;22.60;28.90;;;;;;4787108;29;19933;-59
2022/03/28 05:07:03;;;;;;;;;;;22.60;28.90;;;;;;4793184;29;19937;-59
2022/03/28 05:09:30;;;;;;;;;;;22.60;28.90;;;;;;4799389;29;20918;-59
2022/03/28 05:11:57;;;;;;;;;;;22.60;28.90;;;;;;4809805;29;19984;-59
2022/03/28 05:14:24;;;;;;;;;;;22.60;28.80;;;;;;4795413;29;20385;-59
2022/03/28 05:16:51;;;;;;;;;;;22.50;28.80;;;;;;4801562;29;20002;-59
2022/03/28 05:19:18;;;;;;;;;;;22.60;28.80;;;;;;4792807;29;20004;-59
2022/03/28 05:21:45;;;;;;;;;;;22.60;28.70;;;;;;4789390;29;20619;-59
2022/03/28 05:24:13;;;;;;;;;;;22.60;28.70;;;;;;4789202;29;19929;-61
2022/03/28 05:26:40;;;;;;;;;;;22.60;28.70;;;;;;4793079;29;20010;-60
2022/03/28 05:29:07;;;;;;;;;;;22.70;28.80;;;;;;4794411;29;19941;-59
2022/03/28 05:31:34;;;;;;;;;;;22.70;28.70;;;;;;4797794;29;19929;-60
2022/03/28 05:34:01;;;;;;;;;;;22.80;28.70;;;;;;4792643;29;19940;-60
2022/03/28 05:36:29;;;;;;;;;;;22.80;28.70;;;;;;4787873;29;19929;-61
2022/03/28 05:38:56;;;;;;;;;;;22.90;28.70;;;;;;4796841;29;20415;-61
2022/03/28 05:41:23;;;;;;;;;;;22.90;28.70;;;;;;4796520;29;20019;-62
2022/03/28 05:43:50;;;;;;;;;;;23.00;28.80;;;;;;4797061;29;19997;-63
2022/03/28 05:46:18;;;;;;;;;;;23.00;29.40;;;;;;4795264;29;20370;-63
2022/03/28 05:48:51;;;;;;;;;;;23.10;29.30;;;;;;4794659;29;19949;-63
2022/03/28 05:51:18;;;;;;;;;;;23.20;29.10;;;;;;4795989;29;19937;-63
2022/03/28 05:53:45;;;;;;;;;;;23.30;28.90;;;;;;4795665;29;19980;-64
2022/03/28 05:56:13;;;;;;;;;;;23.30;28.80;;;;;;4792948;29;19936;-63
2022/03/28 05:58:40;;;;;;;;;;;23.40;29.10;;;;;;4795285;29;19937;-64
2022/03/28 06:01:08;;;;;;;;;;;23.50;29.20;;;;;;4803594;29;20716;-62
2022/03/28 06:03:37;;;;;;;;;;;23.50;29.40;;;;;;4809689;29;19937;-62
2022/03/28 06:06:07;;;;;;;;;;;23.60;29.50;;;;;;4794297;29;19943;-63
2022/03/28 06:08:34;;;;;;;;;;;23.70;29.60;;;;;;4793582;29;19929;-65
2022/03/28 06:11:03;;;;;;;;;;;23.80;29.60;;;;;;4796045;29;20331;-65
2022/03/28 06:13:30;;;;;;;;;;;23.80;29.50;;;;;;4796663;29;19933;-64
2022/03/28 06:15:58;;;;;;;;;;;23.90;29.50;;;;;;4795449;29;19937;-65
2022/03/28 06:18:25;;;;;;;;;;;23.90;29.40;;;;;;4793947;29;19937;-68
2022/03/28 06:20:54;;;;;;;;;;;24.00;29.40;;;;;;4791168;29;19936;-68
2022/03/28 06:23:21;;;;;;;;;;;24.10;29.50;;;;;;4792810;29;19937;-70
2022/03/28 06:25:48;;;;;;;;;;;24.20;29.20;;;;;;4790634;29;20044;-69
2022/03/28 06:28:15;;;;;;;;;;;24.30;29.00;;;;;;4795780;29;20260;-67
2022/03/28 06:30:43;;;;;;;;;;;24.30;29.20;;;;;;4786870;29;20070;-68
2022/03/28 06:33:10;;;;;;;;;;;24.40;29.20;;;;;;4791139;29;20030;-67
2022/03/28 06:35:38;;;;;;;;;;;24.50;29.10;;;;;;4808519;29;20537;-66
2022/03/28 06:38:05;;;;;;;;;;;24.50;29.00;;;;;;4787881;29;19968;-70
2022/03/28 06:40:33;;;;;;;;;;;24.60;29.00;;;;;;4789678;29;20029;-70
2022/03/28 06:43:00;;;;;;;;;;;24.70;28.90;;;;;;4793710;29;19929;-66
2022/03/28 06:45:27;;;;;;;;;;;24.70;28.90;;;;;;4794839;29;20008;-67
2022/03/28 06:47:55;;;;;;;;;;;24.80;28.90;;;;;;4794102;29;20318;-66
2022/03/28 06:50:42;;;;;;;;;;;24.80;28.90;;;;;;4788814;29;19944;-65
2022/03/28 06:53:09;;;;;;;;;;;24.80;28.90;;;;;;4794172;29;20444;-67
2022/03/28 06:55:37;;;;;;;;;;;24.80;28.90;;;;;;4795215;29;19976;-67
2022/03/28 06:58:04;;;;;;;;;;;24.90;28.80;;;;;;4794397;29;19975;-69
2022/03/28 07:00:32;;;;;;;;;;;24.90;28.90;;;;;;4793694;29;19940;-66
2022/03/28 07:02:59;;;;;;;;;;;24.80;29.10;;;;;;4788778;29;19986;-67
2022/03/28 07:05:28;;;;;;;;;;;24.80;28.60;;;;;;4794202;29;20217;-66
2022/03/28 07:07:56;;;;;;;;;;;24.90;28.60;;;;;;4792460;29;19937;-65
2022/03/28 07:10:23;;;;;;;;;;;24.90;28.70;;;;;;4788449;29;19933;-66
2022/03/28 07:12:53;;;;;;;;;;;24.90;28.60;;;;;;4794337;29;20371;-67
2022/03/28 07:15:20;;;;;;;;;;;24.90;28.60;;;;;;4795996;29;19952;-66
2022/03/28 07:17:48;;;;;;;;;;;24.90;28.60;;;;;;4795621;29;19933;-69
2022/03/28 07:20:17;;;;;;;;;;;24.90;28.70;;;;;;4792744;29;19968;-77
2022/03/28 07:22:44;;;;;;;;;;;24.90;28.70;;;;;;4793576;29;19937;-70
2022/03/28 07:25:11;;;;;;;;;;;24.90;28.60;;;;;;4793237;29;19941;-68
2022/03/28 07:27:39;;;;;;;;;;;24.90;28.70;;;;;;4790091;29;19933;-68
2022/03/28 07:30:08;;;;;;;;;;;24.90;28.70;;;;;;4794947;29;19979;-67
2022/03/28 07:32:35;;;;;;;;;;;24.90;28.50;;;;;;4791566;29;20016;-68
2022/03/28 07:35:02;;;;;;;;;;;24.90;28.50;;;;;;4792892;29;19936;-65
2022/03/28 07:37:30;;;;;;;;;;;24.90;28.50;;;;;;4793671;29;19934;-66
2022/03/28 07:39:57;;;;;;;;;;;24.90;28.50;;;;;;4793138;29;19929;-65
2022/03/28 07:42:25;;;;;;;;;;;24.90;28.50;;;;;;4795203;29;20053;-65
2022/03/28 07:44:55;;;;;;;;;;;24.90;28.40;;;;;;4795625;29;20035;-67
2022/03/28 07:47:23;;;;;;;;;;;24.90;28.30;;;;;;4792066;29;20017;-67
2022/03/28 07:49:52;;;;;;;;;;;24.90;28.20;;;;;;4792656;29;19937;-68
2022/03/28 07:52:19;;;;;;;;;;;25.00;28.30;;;;;;4792582;29;20105;-68
2022/03/28 07:54:47;;;;;;;;;;;25.00;28.30;;;;;;4794812;29;21983;-67
2022/03/28 07:57:14;;;;;;;;;;;25.00;28.20;;;;;;4793160;29;19941;-68
2022/03/28 07:59:42;;;;;;;;;;;25.00;28.20;;;;;;4794007;29;20028;-65
2022/03/28 08:02:10;;;;;;;;;;;25.10;28.20;;;;;;4791783;29;20352;-65
2022/03/28 08:04:37;;;;;;;;;;;25.10;28.10;;;;;;4795392;29;19933;-65
2022/03/28 08:07:08;;;;;;;;;;;25.10;28.10;;;;;;4791202;29;19997;-65
2022/03/28 08:09:40;;;;;;;;;;;25.10;28.00;;;;;;4795438;29;19936;-66
2022/03/28 08:12:09;;;;;;;;;;;25.10;28.00;;;;;;4793479;29;19937;-68
2022/03/28 08:14:37;;;;;;;;;;;25.20;28.00;;;;;;4795011;29;20009;-65
2022/03/28 08:17:04;;;;;;;;;;;25.20;27.90;;;;;;4796457;29;19967;-66
2022/03/28 08:19:31;;;;;;;;;;;25.20;27.90;;;;;;4792238;29;19940;-68
2022/03/28 08:21:58;;;;;;;;;;;25.30;27.90;;;;;;4794098;29;20424;-68
2022/03/28 08:24:26;;;;;;;;;;;25.30;27.80;;;;;;4793363;29;19936;-69
2022/03/28 08:26:53;;;;;;;;;;;25.30;27.80;;;;;;4796830;29;19944;-66
2022/03/28 08:29:20;;;;;;;;;;;25.30;27.80;;;;;;4795674;29;20589;-67
2022/03/28 08:31:48;;;;;;;;;;;25.30;27.90;;;;;;4793253;29;20038;-68
2022/03/28 08:34:16;;;;;;;;;;;25.40;27.80;;;;;;4793412;29;20018;-67
2022/03/28 08:36:42;;;;;;;;;;;25.40;27.60;;;;;;4792748;29;20426;-69
2022/03/28 08:39:10;;;;;;;;;;;25.40;27.60;;;;;;4787768;29;20819;-67
2022/03/28 08:41:37;;;;;;;;;;;25.40;27.60;;;;;;4796632;29;19936;-66
2022/03/28 08:44:04;;;;;;;;;;;25.40;27.50;;;;;;4794282;29;19973;-67
2022/03/28 08:46:31;;;;;;;;;;;25.40;27.50;;;;;;4793026;29;19981;-67
2022/03/28 08:48:59;;;;;;;;;;;25.40;27.60;;;;;;4791504;29;19937;-67
2022/03/28 08:51:30;;;;;;;;;;;25.40;27.40;;;;;;4791675;29;19936;-68
2022/03/28 08:53:57;;;;;;;;;;;25.40;27.30;;;;;;4793488;29;20002;-66
2022/03/28 08:56:24;;;;;;;;;;;25.40;27.20;;;;;;4777200;29;20333;-67
2022/03/28 08:59:07;;;;;;;;;;;25.40;27.30;;;;;;4793035;29;19929;-67
2022/03/28 09:01:34;;;;;;;;;;;25.50;27.50;;;;;;4795099;29;19981;-67
2022/03/28 09:04:09;;;;;;;;;;;25.50;27.50;;;;;;4791260;29;19934;-66
2022/03/28 09:06:39;;;;;;;;;;;25.50;27.50;;;;;;4797395;29;19979;-65
2022/03/28 09:09:32;;;;;;;;;;;25.50;27.50;;;;;;4793467;29;19998;-65
2022/03/28 09:12:05;;;;;;;;;;;25.50;27.60;;;;;;4788537;29;19981;-67
2022/03/28 09:14:33;;;;;;;;;;;25.60;27.60;;;;;;4795309;29;20057;-67
2022/03/28 09:17:09;;;;;;;;;;;25.60;27.70;;;;;;4794856;29;20425;-67
2022/03/28 09:19:46;;;;;;;;;;;25.60;27.70;;;;;;4780765;29;20177;-68
2022/03/28 09:22:15;;;;;;;;;;;25.70;27.70;;;;;;4791275;29;19933;-70
2022/03/28 09:24:43;;;;;;;;;;;25.70;27.80;;;;;;4794948;29;20435;-69
2022/03/28 09:27:12;;;;;;;;;;;25.70;27.70;;;;;;4790519;29;19968;-65
2022/03/28 09:29:56;;;;;;;;;;;25.70;27.70;;;;;;4792825;29;19976;-65
2022/03/28 09:32:25;;;;;;;;;;;25.70;27.80;;;;;;4789106;29;19947;-65
2022/03/28 09:35:08;;;;;;;;;;;25.70;27.90;;;;;;4792465;29;19937;-66
2022/03/28 09:37:56;;;;;;;;;;;25.70;27.80;;;;;;4796601;29;19940;-68
2022/03/28 09:40:29;;;;;;;;;;;25.80;27.90;;;;;;4797448;29;19937;-66
2022/03/28 09:42:57;;;;;;;;;;;25.80;28.00;;;;;;4797225;29;19980;-66
2022/03/28 09:45:27;;;;;;;;;;;25.80;28.10;;;;;;4791683;29;19975;-65
2022/03/28 09:47:59;;;;;;;;;;;25.80;28.10;;;;;;4794552;29;19933;-68
2022/03/28 09:50:34;;;;;;;;;;;25.80;28.00;;;;;;4796600;29;20661;-65
2022/03/28 09:53:21;;;;;;;;;;;25.90;28.00;;;;;;4797684;29;19987;-65
2022/03/28 09:55:53;;;;;;;;;;;25.90;28.10;;;;;;4797713;29;20394;-66
2022/03/28 09:58:46;;;;;;;;;;;25.90;28.00;;;;;;4795092;29;19947;-64
2022/03/28 10:01:21;;;;;;;;;;;25.90;27.90;;;;;;4794497;29;19948;-66
2022/03/28 10:03:50;;;;;;;;;;;26.00;28.40;;;;;;4787322;29;20353;-65
2022/03/28 10:06:19;;;;;;;;;;;25.90;27.90;;;;;;4795207;29;19937;-65
2022/03/28 10:08:47;;;;;;;;;;;26.00;28.00;;;;;;4780805;29;20399;-66
2022/03/28 10:11:14;;;;;;;;;;;25.90;27.80;;;;;;4795287;29;19937;-65
2022/03/28 10:13:42;;;;;;;;;;;25.90;27.70;;;;;;4796726;29;19937;-65
2022/03/28 10:16:09;;;;;;;;;;;25.90;27.70;;;;;;4777030;29;19944;-65
2022/03/28 10:18:38;;;;;;;;;;;25.90;27.60;;;;;;4790849;29;20349;-65
2022/03/28 10:21:17;;;;;;;;;;;25.90;27.50;;;;;;4790658;29;20383;-65
2022/03/28 10:24:03;;;;;;;;;;;25.90;27.50;;;;;;4792678;29;19985;-65
2022/03/28 10:26:33;;;;;;;;;;;25.90;27.50;;;;;;4793831;29;19990;-66
2022/03/28 10:29:09;;;;;;;;;;;25.90;27.50;;;;;;4795190;29;20076;-63
2022/03/28 10:31:56;;;;;;;;;;;25.90;27.40;;;;;;4796830;29;19940;-65
2022/03/28 10:34:40;;;;;;;;;;;25.90;27.40;;;;;;4795203;29;20027;-66
2022/03/28 10:37:28;;;;;;;;;;;25.90;27.40;;;;;;4794847;29;19933;-62
2022/03/28 10:40:16;;;;;;;;;;;25.90;27.50;;;;;;4797017;29;19933;-65
2022/03/28 10:42:55;;;;;;;;;;;25.90;27.40;;;;;;4793267;29;20118;-63
2022/03/28 10:45:31;;;;;;;;;;;25.90;27.40;;;;;;4791559;29;20382;-66
2022/03/28 10:48:01;;;;;;;;;;;25.90;27.40;;;;;;4791280;29;19948;-65
2022/03/28 10:50:31;;;;;;;;;;;25.80;27.30;;;;;;4792275;29;20439;-66
2022/03/28 10:53:07;;;;;;;;;;;25.80;27.30;;;;;;4793422;29;20406;-65
2022/03/28 10:55:37;;;;;;;;;;;25.80;27.20;;;;;;4791498;29;19933;-64
2022/03/28 10:58:04;;;;;;;;;;;25.80;27.20;;;;;;4794009;29;19937;-64
2022/03/28 11:00:32;;;;;;;;;;;25.80;27.10;;;;;;4791674;29;20068;-65
2022/03/28 11:03:03;;;;;;;;;;;25.80;27.20;;;;;;4789697;29;19937;-66
2022/03/28 11:05:50;;;;;;;;;;;25.80;27.30;;;;;;4791766;29;19933;-68
2022/03/28 11:08:31;;;;;;;;;;;25.80;27.30;;;;;;4794039;29;19988;-70
2022/03/28 11:11:18;;;;;;;;;;;25.90;27.40;;;;;;4792172;29;19934;-70
2022/03/28 11:14:05;;;;;;;;;;;25.90;27.40;;;;;;4795235;29;19948;-69
2022/03/28 11:16:39;;;;;;;;;;;25.90;27.40;;;;;;4794393;29;19969;-69
2022/03/28 11:19:20;;;;;;;;;;;25.90;27.40;;;;;;4795230;29;19933;-69
2022/03/28 11:22:06;;;;;;;;;;;25.90;27.50;;;;;;4791085;29;19938;-67
2022/03/28 11:24:45;;;;;;;;;;;25.90;27.70;;;;;;4796413;29;19928;-66
2022/03/28 11:27:13;;;;;;;;;;;26.00;27.50;;;;;;4793276;29;19972;-67
2022/03/28 11:29:40;;;;;;;;;;;26.00;27.50;;;;;;4793811;29;20028;-67
2022/03/28 11:32:08;;;;;;;;;;;26.00;27.50;;;;;;4796775;29;19994;-66
2022/03/28 11:34:36;;;;;;;;;;;26.00;27.90;;;;;;4795225;29;20272;-71
2022/03/28 11:37:03;;;;;;;;;;;26.10;27.60;;;;;;4794290;29;20533;-68
2022/03/28 11:39:31;;;;;;;;;;;26.10;27.70;;;;;;4792238;29;19968;-66
2022/03/28 11:41:58;;;;;;;;;;;26.10;27.40;;;;;;4792579;29;20027;-67
2022/03/28 11:44:26;;;;;;;;;;;26.20;27.50;;;;;;4793826;29;20287;-65
2022/03/28 11:46:54;;;;;;;;;;;26.20;27.60;;;;;;4791349;29;19978;-65
2022/03/28 11:49:21;;;;;;;;;;;26.20;27.70;;;;;;4795164;29;19972;-68
2022/03/28 11:51:49;;;;;;;;;;;26.20;27.60;;;;;;4791164;29;19941;-66
2022/03/28 11:54:17;;;;;;;;;;;26.20;27.60;;;;;;4789841;29;20031;-69
2022/03/28 11:59:41;;;;;;;;;;;26.30;27.50;;;;;;4792896;29;19974;-60
2022/03/28 12:02:08;;;;;;;;;;;26.30;27.30;;;;;;4794147;29;20387;-60
2022/03/28 12:04:45;;;;;;;;;;;26.30;27.20;;;;;;4797535;29;20039;-63
2022/03/28 12:07:13;;;;;;;;;;;26.30;27.40;;;;;;4805788;29;19949;-61
2022/03/28 12:09:41;;;;;;;;;;;26.30;27.60;;;;;;4793878;29;19937;-63
2022/03/28 12:12:09;;;;;;;;;;;26.30;27.60;;;;;;4792566;29;19929;-63
2022/03/28 12:14:42;;;;;;;;;;;26.30;27.60;;;;;;4796521;29;19937;-63
2022/03/28 12:17:10;;;;;;;;;;;26.40;27.70;;;;;;4793400;29;20019;-63
2022/03/28 12:19:37;;;;;;;;;;;26.40;28.00;;;;;;4794463;29;19929;-63
2022/03/28 12:22:18;;;;;;;;;;;26.40;28.00;;;;;;4795546;29;19937;-64
2022/03/28 12:24:50;;;;;;;;;;;26.40;27.90;;;;;;4791044;29;19936;-63
2022/03/28 12:27:18;;;;;;;;;;;26.50;28.10;;;;;;4795223;29;19964;-64
2022/03/28 12:29:47;;;;;;;;;;;26.50;28.10;;;;;;4791681;29;20230;-62
2022/03/28 12:32:16;;;;;;;;;;;26.50;28.20;;;;;;4794673;29;19929;-63
2022/03/28 12:34:44;;;;;;;;;;;26.50;27.90;;;;;;4795859;29;19929;-65
2022/03/28 12:37:14;;;;;;;;;;;26.50;27.70;;;;;;4794756;29;19983;-62
2022/03/28 12:39:42;;;;;;;;;;;26.50;28.10;;;;;;4795070;29;19933;-63
2022/03/28 12:42:09;;;;;;;;;;;26.50;27.50;;;;;;4794067;29;19957;-64
2022/03/28 12:44:38;;;;;;;;;;;26.50;27.50;;;;;;4794946;29;19938;-66
2022/03/28 12:47:05;;;;;;;;;;;26.50;27.50;;;;;;4792217;29;19973;-65
2022/03/28 12:49:40;;;;;;;;;;;26.50;27.20;;;;;;4797331;29;19941;-68
2022/03/28 12:52:11;;;;;;;;;;;26.50;27.10;;;;;;4794581;29;20028;-66
2022/03/28 12:54:38;;;;;;;;;;;26.50;27.20;;;;;;4787605;29;20505;-66
2022/03/28 12:57:05;;;;;;;;;;;26.50;27.30;;;;;;4794565;29;20314;-66
2022/03/28 12:59:33;;;;;;;;;;;26.50;27.40;;;;;;4789168;29;20029;-66
2022/03/28 13:02:14;;;;;;;;;;;26.50;27.30;;;;;;4795959;29;19945;-67
2022/03/28 13:04:46;;;;;;;;;;;26.50;27.40;;;;;;4793310;29;19930;-65
2022/03/28 13:07:21;;;;;;;;;;;26.50;27.40;;;;;;4808987;29;20386;-65
2022/03/28 13:10:09;;;;;;;;;;;26.50;27.40;;;;;;4796631;29;19933;-65
2022/03/28 13:12:41;;;;;;;;;;;26.40;27.30;;;;;;4795198;29;19940;-67
2022/03/28 13:15:16;;;;;;;;;;;26.50;27.40;;;;;;4797053;29;20005;-70
2022/03/28 13:17:48;;;;;;;;;;;26.40;27.30;;;;;;4797885;29;20458;-69
2022/03/28 13:20:17;;;;;;;;;;;26.50;27.40;;;;;;4796227;29;19982;-71
2022/03/28 13:22:46;;;;;;;;;;;26.50;27.30;;;;;;4796435;29;19980;-70
2022/03/28 13:25:17;;;;;;;;;;;26.50;27.10;;;;;;4792491;29;19933;-70
2022/03/28 13:28:04;;;;;;;;;;;26.40;27.00;;;;;;4792365;29;20024;-71
2022/03/28 13:30:35;;;;;;;;;;;26.50;27.10;;;;;;4794747;29;19987;-70
2022/03/28 13:33:04;;;;;;;;;;;26.50;27.00;;;;;;4797046;29;20386;-67
2022/03/28 13:35:31;;;;;;;;;;;26.50;27.00;;;;;;4793583;29;20322;-61
2022/03/28 13:38:00;;;;;;;;;;;26.50;27.10;;;;;;4800110;29;19973;-61
2022/03/28 13:40:27;;;;;;;;;;;26.50;27.10;;;;;;4795682;29;20413;-63
2022/03/28 13:42:55;;;;;;;;;;;26.50;27.30;;;;;;4794393;29;20025;-62
2022/03/28 13:45:23;;;;;;;;;;;26.50;27.20;;;;;;4795615;29;19976;-61
2022/03/28 13:47:50;;;;;;;;;;;26.50;27.20;;;;;;4797694;29;19949;-61
2022/03/28 13:50:18;;;;;;;;;;;26.50;27.20;;;;;;4796561;29;20008;-61
2022/03/28 13:53:05;;;;;;;;;;;26.50;27.30;;;;;;4803690;29;19974;-61
2022/03/28 13:55:32;;;;;;;;;;;26.50;27.20;;;;;;4794903;29;20026;-61
2022/03/28 13:57:59;;;;;;;;;;;26.50;27.20;;;;;;4793641;29;20383;-61
2022/03/28 14:00:27;;;;;;;;;;;26.50;27.20;;;;;;4788994;29;19929;-62
2022/03/28 14:03:06;;;;;;;;;;;26.50;27.30;;;;;;4797520;29;19929;-62
2022/03/28 14:05:34;;;;;;;;;;;26.50;27.30;;;;;;4798819;29;21006;-60
2022/03/28 14:08:02;;;;;;;;;;;26.50;27.30;;;;;;4797010;29;19944;-61
2022/03/28 14:10:29;;;;;;;;;;;26.50;27.30;;;;;;4796107;29;20395;-62
2022/03/28 14:12:57;;;;;;;;;;;26.50;27.30;;;;;;4796746;29;19990;-58
2022/03/28 14:15:24;;;;;;;;;;;26.50;27.20;;;;;;4797279;29;19990;-61
2022/03/28 14:17:51;;;;;;;;;;;26.50;27.30;;;;;;4797534;29;20399;-61
2022/03/28 14:20:19;;;;;;;;;;;26.50;27.30;;;;;;4799056;29;19998;-59
2022/03/28 14:22:46;;;;;;;;;;;26.60;27.30;;;;;;4795929;29;19929;-61
2022/03/28 14:25:13;;;;;;;;;;;26.60;27.30;;;;;;4793462;29;19938;-62
2022/03/28 14:27:40;;;;;;;;;;;26.60;27.40;;;;;;4792135;29;20028;-62
2022/03/28 14:30:08;;;;;;;;;;;26.60;27.30;;;;;;4793728;29;19930;-61
2022/03/28 14:32:35;;;;;;;;;;;26.60;27.30;;;;;;4798395;29;19944;-60